createdAt,value
2019-02-26T00:00:32.773Z,102600.02
2019-02-26T00:03:04.755Z,102588.67
2019-02-26T00:05:34.845Z,102581.22
2019-02-26T00:08:05.305Z,102580.33
2019-02-26T00:10:37.260Z,102582.13
2019-02-26T00:13:06.406Z,102572.95
2019-02-26T00:15:38.108Z,102572.09
2019-02-26T00:18:11.346Z,102574.30
2019-02-26T00:20:41.320Z,102569.98
2019-02-26T00:23:10.886Z,102571.27
2019-02-26T00:25:41.526Z,102561.17
2019-02-26T00:28:13.069Z,102562.49
2019-02-26T00:30:42.817Z,102553.77
2019-02-26T00:33:13.743Z,102549.41
2019-02-26T00:35:44.281Z,102549.00
2019-02-26T00:38:15.992Z,102545.45
2019-02-26T00:40:47.339Z,102545.44
2019-02-26T00:43:20.819Z,102552.89
2019-02-26T00:45:51.058Z,102556.77
2019-02-26T00:48:19.881Z,102544.59
2019-02-26T00:50:49.579Z,102550.77
2019-02-26T00:53:21.744Z,102540.65
2019-02-26T00:55:51.633Z,102536.28
2019-02-26T00:58:22.566Z,102546.32
2019-02-26T01:00:52.549Z,102543.70
2019-02-26T01:03:22.168Z,102532.73
2019-02-26T01:05:51.860Z,102525.81
2019-02-26T01:08:22.311Z,102526.62
2019-02-26T01:10:51.943Z,102534.53
2019-02-26T01:13:22.409Z,102539.77
2019-02-26T01:15:53.369Z,102545.41
2019-02-26T01:18:24.590Z,102545.41
2019-02-26T01:20:55.326Z,102540.20
2019-02-26T01:23:26.857Z,102545.91
2019-02-26T01:25:57.428Z,102537.16
2019-02-26T01:28:29.197Z,102531.09
2019-02-26T01:31:00.279Z,102533.73
2019-02-26T01:33:32.055Z,102534.16
2019-02-26T01:36:02.660Z,102528.05
2019-02-26T01:38:32.425Z,102540.71
2019-02-26T01:41:02.610Z,102543.77
2019-02-26T01:43:32.559Z,102541.15
2019-02-26T01:46:02.412Z,102538.55
2019-02-26T01:48:34.357Z,102530.25
2019-02-26T01:51:03.884Z,102528.06
2019-02-26T01:53:34.049Z,102529.37
2019-02-26T01:56:05.096Z,102529.36
2019-02-26T01:58:35.045Z,102534.17
2019-02-26T02:01:04.759Z,102539.84
2019-02-26T02:03:34.396Z,102535.49
2019-02-26T02:06:06.099Z,102527.63
2019-02-26T02:08:39.301Z,102525.87
2019-02-26T02:11:09.231Z,102527.17
2019-02-26T02:13:41.376Z,102521.08
2019-02-26T02:16:10.257Z,102513.64
2019-02-26T02:18:43.644Z,102515.38
2019-02-26T02:21:11.595Z,102517.54
2019-02-26T02:23:42.102Z,102522.31
2019-02-26T02:26:13.910Z,102517.53
2019-02-26T02:28:44.312Z,102509.27
2019-02-26T02:31:13.949Z,102493.98
2019-02-26T02:33:43.588Z,102497.94
2019-02-26T02:36:15.103Z,102494.45
2019-02-26T02:38:47.342Z,102495.73
2019-02-26T02:41:17.410Z,102503.60
2019-02-26T02:43:47.031Z,102497.94
2019-02-26T02:46:16.679Z,102490.50
2019-02-26T02:48:46.629Z,102482.21
2019-02-26T02:51:16.527Z,102482.21
2019-02-26T02:53:47.865Z,102480.46
2019-02-26T02:56:18.419Z,102481.75
2019-02-26T02:58:51.051Z,102484.77
2019-02-26T03:01:22.384Z,102483.47
2019-02-26T03:03:53.807Z,102483.07
2019-02-26T03:06:27.296Z,102496.60
2019-02-26T03:08:56.224Z,102495.74
2019-02-26T03:11:26.288Z,102495.30
2019-02-26T03:13:56.035Z,102493.56
2019-02-26T03:16:27.154Z,102487.02
2019-02-26T03:18:57.336Z,102485.70
2019-02-26T03:21:27.758Z,102479.14
2019-02-26T03:24:00.878Z,102480.48
2019-02-26T03:26:30.279Z,102477.85
2019-02-26T03:28:59.963Z,102480.05
2019-02-26T03:31:34.616Z,102487.03
2019-02-26T03:34:08.810Z,102487.87
2019-02-26T03:36:34.231Z,102495.33
2019-02-26T03:39:05.692Z,102487.03
2019-02-26T03:41:37.159Z,102489.19
2019-02-26T03:44:08.771Z,102488.74
2019-02-26T03:46:38.501Z,102494.44
2019-02-26T03:49:08.721Z,102496.59
2019-02-26T03:51:39.660Z,102492.67
2019-02-26T03:54:10.805Z,102488.73
2019-02-26T03:56:41.646Z,102497.91
2019-02-26T03:59:11.868Z,102493.56
2019-02-26T04:01:41.885Z,102495.75
2019-02-26T04:04:12.033Z,102491.80
2019-02-26T04:06:44.089Z,102495.33
2019-02-26T04:09:15.979Z,102493.14
2019-02-26T04:11:47.761Z,102499.24
2019-02-26T04:14:18.060Z,102510.12
2019-02-26T04:16:48.592Z,102504.90
2019-02-26T04:19:19.532Z,102517.05
2019-02-26T04:22:30.180Z,102509.66
2019-02-26T04:25:12.405Z,102517.13
2019-02-26T04:28:10.821Z,102516.12
2019-02-26T04:31:06.799Z,102514.48
2019-02-26T04:34:08.745Z,102520.97
2019-02-26T04:37:04.746Z,102514.43
2019-02-26T04:39:54.111Z,102514.34
2019-02-26T04:43:04.688Z,102509.38
2019-02-26T04:46:13.647Z,102512.91
2019-02-26T04:48:44.396Z,102496.34
2019-02-26T04:51:14.152Z,102508.66
2019-02-26T04:53:44.115Z,102503.52
2019-02-26T04:56:15.080Z,102502.09
2019-02-26T04:58:47.525Z,102498.52
2019-02-26T05:01:19.136Z,102506.04
2019-02-26T05:03:49.481Z,102499.03
2019-02-26T05:06:19.105Z,102508.08
2019-02-26T05:08:48.841Z,102509.02
2019-02-26T05:11:31.198Z,102494.23
2019-02-26T05:13:50.121Z,102491.09
2019-02-26T05:16:19.981Z,102503.72
2019-02-26T05:18:51.640Z,102510.26
2019-02-26T05:21:21.137Z,102520.25
2019-02-26T05:23:52.406Z,102516.80
2019-02-26T05:26:23.326Z,102512.35
2019-02-26T05:28:52.947Z,102514.41
2019-02-26T05:31:22.915Z,102512.66
2019-02-26T05:33:55.375Z,102522.14
2019-02-26T05:36:24.632Z,102522.03
2019-02-26T05:38:56.986Z,102526.55
2019-02-26T05:41:26.284Z,102518.81
2019-02-26T05:43:58.381Z,102526.19
2019-02-26T05:46:29.524Z,102522.38
2019-02-26T05:48:59.325Z,102514.13
2019-02-26T05:51:31.987Z,102487.98
2019-02-26T05:54:02.103Z,102516.79
2019-02-26T05:56:33.955Z,102522.65
2019-02-26T05:59:06.839Z,102514.33
2019-02-26T06:01:35.092Z,102524.27
2019-02-26T06:04:07.679Z,102520.05
2019-02-26T06:06:36.684Z,102518.69
2019-02-26T06:09:07.779Z,102511.98
2019-02-26T06:11:39.981Z,102515.90
2019-02-26T06:14:12.481Z,102524.27
2019-02-26T06:16:43.202Z,102517.69
2019-02-26T06:19:15.797Z,102528.11
2019-02-26T06:21:47.406Z,102517.17
2019-02-26T06:24:20.259Z,102517.17
2019-02-26T06:26:48.876Z,102518.12
2019-02-26T06:29:22.281Z,102515.31
2019-02-26T06:31:50.488Z,102514.08
2019-02-26T06:34:21.410Z,102511.19
2019-02-26T06:36:53.240Z,102507.37
2019-02-26T06:39:24.578Z,102510.88
2019-02-26T06:41:54.896Z,102502.60
2019-02-26T06:44:24.533Z,102498.23
2019-02-26T06:46:54.438Z,102492.61
2019-02-26T06:49:25.136Z,102490.42
2019-02-26T06:51:56.072Z,102501.81
2019-02-26T06:54:27.122Z,102501.37
2019-02-26T06:56:58.057Z,102499.19
2019-02-26T06:59:32.495Z,102505.27
2019-02-26T07:02:02.249Z,102513.55
2019-02-26T07:04:31.865Z,102515.31
2019-02-26T07:07:02.414Z,102520.17
2019-02-26T07:09:34.596Z,102524.52
2019-02-26T07:12:05.071Z,102522.22
2019-02-26T07:14:34.878Z,102516.08
2019-02-26T07:17:04.746Z,102515.69
2019-02-26T07:19:35.860Z,102522.70
2019-02-26T07:22:08.346Z,102511.44
2019-02-26T07:24:38.578Z,102515.79
2019-02-26T07:27:11.276Z,102516.69
2019-02-26T07:29:42.522Z,102522.80
2019-02-26T07:32:14.217Z,102523.70
2019-02-26T07:34:45.278Z,102514.53
2019-02-26T07:37:15.794Z,102512.77
2019-02-26T07:39:47.215Z,102514.87
2019-02-26T07:42:18.782Z,102511.33
2019-02-26T07:44:48.490Z,102503.05
2019-02-26T07:47:18.701Z,102502.66
2019-02-26T07:49:48.631Z,102507.06
2019-02-26T07:52:18.291Z,102497.83
2019-02-26T07:54:49.498Z,102505.19
2019-02-26T07:57:20.721Z,102499.87
2019-02-26T07:59:51.551Z,102500.51
2019-02-26T08:02:21.544Z,102505.95
2019-02-26T08:04:51.518Z,102512.38
2019-02-26T08:07:23.427Z,102521.61
2019-02-26T08:09:53.091Z,102526.27
2019-02-26T08:12:23.001Z,102526.61
2019-02-26T08:14:52.932Z,102520.81
2019-02-26T08:17:22.877Z,102525.45
2019-02-26T08:19:52.625Z,102520.72
2019-02-26T08:22:22.291Z,102517.00
2019-02-26T08:24:55.026Z,102514.34
2019-02-26T08:27:26.300Z,102516.14
2019-02-26T08:29:58.593Z,102515.90
2019-02-26T08:32:30.370Z,102511.09
2019-02-26T08:35:00.603Z,102507.92
2019-02-26T08:37:31.032Z,102506.22
2019-02-26T08:40:01.059Z,102505.25
2019-02-26T08:42:31.094Z,102514.37
2019-02-26T08:45:00.756Z,102513.65
2019-02-26T08:47:32.226Z,102507.28
2019-02-26T08:50:06.490Z,102502.55
2019-02-26T08:52:33.385Z,102503.00
2019-02-26T08:55:03.189Z,102492.45
2019-02-26T08:57:32.882Z,102489.77
2019-02-26T09:00:02.621Z,102490.78
2019-02-26T09:02:32.539Z,102493.50
2019-02-26T09:05:04.450Z,102486.53
2019-02-26T09:07:35.425Z,102483.49
2019-02-26T09:10:07.150Z,102487.77
2019-02-26T09:12:38.600Z,102491.08
2019-02-26T09:15:11.055Z,102499.38
2019-02-26T09:17:42.122Z,102501.71
2019-02-26T09:20:14.700Z,102495.90
2019-02-26T09:22:48.063Z,102495.18
2019-02-26T09:25:17.233Z,102494.25
2019-02-26T09:27:47.270Z,102490.80
2019-02-26T09:30:17.314Z,102488.69
2019-02-26T09:32:47.727Z,102483.02
2019-02-26T09:35:22.757Z,102490.56
2019-02-26T09:37:52.601Z,102486.59
2019-02-26T09:40:23.466Z,102487.28
2019-02-26T09:42:55.105Z,102488.87
2019-02-26T09:45:26.898Z,102495.50
2019-02-26T09:47:58.019Z,102504.16
2019-02-26T09:50:27.817Z,102507.94
2019-02-26T09:52:59.064Z,102512.02
2019-02-26T09:55:29.648Z,102512.16
2019-02-26T09:57:59.563Z,102512.02
2019-02-26T10:00:29.782Z,102513.96
2019-02-26T10:02:59.721Z,102508.52
2019-02-26T10:05:29.467Z,102509.67
2019-02-26T10:08:02.026Z,102509.47
2019-02-26T10:10:33.183Z,102496.34
2019-02-26T10:13:04.707Z,102505.38
2019-02-26T10:15:35.502Z,102497.98
2019-02-26T10:18:07.205Z,102491.63
2019-02-26T10:20:37.455Z,102492.45
2019-02-26T10:23:07.272Z,102489.70
2019-02-26T10:25:38.842Z,102491.86
2019-02-26T10:28:11.423Z,102488.87
2019-02-26T10:30:41.731Z,102489.01
2019-02-26T10:33:17.419Z,102486.53
2019-02-26T10:35:47.407Z,102491.89
2019-02-26T10:38:16.383Z,102497.97
2019-02-26T10:40:53.798Z,102502.23
2019-02-26T10:43:17.863Z,102497.55
2019-02-26T10:45:50.032Z,102493.84
2019-02-26T10:48:22.054Z,102496.39
2019-02-26T10:50:54.403Z,102487.91
2019-02-26T10:53:31.716Z,102486.64
2019-02-26T10:56:02.616Z,102490.05
2019-02-26T10:58:32.595Z,102484.61
2019-02-26T11:01:05.216Z,102477.94
2019-02-26T11:03:37.970Z,102476.84
2019-02-26T11:06:07.338Z,102479.40
2019-02-26T11:08:37.581Z,102479.53
2019-02-26T11:11:09.845Z,102483.17
2019-02-26T11:13:40.671Z,102483.00
2019-02-26T11:16:11.232Z,102489.23
2019-02-26T11:18:42.635Z,102476.72
2019-02-26T11:21:15.845Z,102476.14
2019-02-26T11:23:46.414Z,102467.09
2019-02-26T11:26:18.699Z,102469.48
2019-02-26T11:28:48.468Z,102469.64
2019-02-26T11:31:20.551Z,102466.55
2019-02-26T11:33:50.407Z,102467.52
2019-02-26T11:36:20.305Z,102466.91
2019-02-26T11:38:50.189Z,102468.20
2019-02-26T11:41:20.190Z,102463.61
2019-02-26T11:43:50.204Z,102464.88
2019-02-26T11:46:22.533Z,102461.45
2019-02-26T11:48:52.556Z,102469.31
2019-02-26T11:51:23.527Z,102462.47
2019-02-26T11:53:54.076Z,102458.70
2019-02-26T11:56:25.678Z,102456.27
2019-02-26T11:58:56.149Z,102444.97
2019-02-26T12:01:27.051Z,102438.97
2019-02-26T12:04:02.531Z,102431.84
2019-02-26T12:06:30.041Z,102434.48
2019-02-26T12:09:00.356Z,102433.94
2019-02-26T12:11:32.623Z,102430.00
2019-02-26T12:14:03.380Z,102428.04
2019-02-26T12:16:34.655Z,102433.66
2019-02-26T12:19:06.116Z,102428.40
2019-02-26T12:21:37.120Z,102424.96
2019-02-26T12:24:09.308Z,102424.60
2019-02-26T12:26:38.928Z,102422.58
2019-02-26T12:29:08.848Z,102417.38
2019-02-26T12:31:39.110Z,102413.31
2019-02-26T12:34:14.715Z,102410.06
2019-02-26T12:36:44.057Z,102411.52
2019-02-26T12:39:16.162Z,102411.33
2019-02-26T12:41:47.984Z,102409.39
2019-02-26T12:44:17.346Z,102414.20
2019-02-26T12:46:47.830Z,102412.98
2019-02-26T12:49:22.371Z,102402.69
2019-02-26T12:51:53.956Z,102413.57
2019-02-26T12:54:24.244Z,102403.70
2019-02-26T12:56:54.981Z,102410.11
2019-02-26T12:59:26.074Z,102412.87
2019-02-26T13:01:56.297Z,102416.44
2019-02-26T13:04:26.204Z,102406.43
2019-02-26T13:06:56.113Z,102408.59
2019-02-26T13:09:26.872Z,102406.48
2019-02-26T13:12:02.516Z,102401.14
2019-02-26T13:14:29.203Z,102400.45
2019-02-26T13:17:00.039Z,102406.16
2019-02-26T13:19:33.258Z,102406.37
2019-02-26T13:22:06.778Z,102400.88
2019-02-26T13:24:33.387Z,102399.22
2019-02-26T13:27:03.092Z,102397.06
2019-02-26T13:29:33.229Z,102393.45
2019-02-26T13:32:03.345Z,102389.08
2019-02-26T13:34:32.973Z,102364.05
2019-02-26T13:37:03.280Z,102354.08
2019-02-26T13:39:38.657Z,102354.08
2019-02-26T13:42:10.051Z,102364.52
2019-02-26T13:44:36.295Z,102362.63
2019-02-26T13:47:06.007Z,102352.83
2019-02-26T13:49:36.146Z,102349.17
2019-02-26T13:52:06.781Z,102340.49
2019-02-26T13:54:46.770Z,102342.47
2019-02-26T13:57:16.472Z,102326.51
2019-02-26T13:59:46.425Z,102333.80
2019-02-26T14:02:17.634Z,102332.41
2019-02-26T14:04:47.724Z,102328.94
2019-02-26T14:07:17.779Z,102328.67
2019-02-26T14:09:47.812Z,102327.69
2019-02-26T14:12:17.826Z,102326.50
2019-02-26T14:14:47.485Z,102323.93
2019-02-26T14:17:17.882Z,102322.48
2019-02-26T14:19:48.391Z,102316.95
2019-02-26T14:22:18.651Z,102306.89
2019-02-26T14:24:48.280Z,102297.17
2019-02-26T14:27:18.274Z,102302.34
2019-02-26T14:29:47.887Z,102299.91
2019-02-26T14:32:18.291Z,102298.13
2019-02-26T14:34:48.482Z,102295.43
2019-02-26T14:37:18.209Z,102285.41
2019-02-26T14:39:48.074Z,102287.52
2019-02-26T14:42:17.947Z,102285.37
2019-02-26T14:44:48.172Z,102283.63
2019-02-26T14:47:18.064Z,102281.94
2019-02-26T14:49:48.140Z,102280.69
2019-02-26T14:52:18.130Z,102280.77
2019-02-26T14:54:48.171Z,102272.35
2019-02-26T14:57:18.053Z,102272.90
2019-02-26T14:59:47.969Z,102273.83
2019-02-26T15:02:17.744Z,102268.52
2019-02-26T15:04:47.529Z,102267.45
2019-02-26T15:07:17.413Z,102260.94
2019-02-26T15:09:47.040Z,102268.65
2019-02-26T15:12:17.658Z,102265.73
2019-02-26T15:14:49.027Z,102267.50
2019-02-26T15:17:18.649Z,102263.41
2019-02-26T15:19:51.406Z,102267.03
2019-02-26T15:22:20.709Z,102264.27
2019-02-26T15:24:50.360Z,102264.62
2019-02-26T15:27:20.333Z,102264.62
2019-02-26T15:29:50.483Z,102271.28
2019-02-26T15:32:20.597Z,102267.91
2019-02-26T15:34:50.632Z,102262.67
2019-02-26T15:37:20.695Z,102264.23
2019-02-26T15:39:51.327Z,102265.16
2019-02-26T15:42:21.864Z,102264.70
2019-02-26T15:44:51.875Z,102259.02
2019-02-26T15:47:21.784Z,102262.67
2019-02-26T15:49:51.382Z,102255.54
2019-02-26T15:52:22.215Z,102258.56
2019-02-26T15:54:52.371Z,102254.42
2019-02-26T15:57:22.392Z,102258.30
2019-02-26T15:59:52.902Z,102260.97
2019-02-26T16:02:28.532Z,102258.98
2019-02-26T16:04:57.545Z,102262.51
2019-02-26T16:07:27.872Z,102255.41
2019-02-26T16:09:57.517Z,102260.89
2019-02-26T16:12:27.202Z,102255.92
2019-02-26T16:14:57.478Z,102254.41
2019-02-26T16:17:27.386Z,102260.94
2019-02-26T16:19:57.315Z,102260.67
2019-02-26T16:22:27.246Z,102267.18
2019-02-26T16:24:56.897Z,102258.70
2019-02-26T16:27:27.810Z,102261.89
2019-02-26T16:29:57.809Z,102252.98
2019-02-26T16:32:28.041Z,102258.16
2019-02-26T16:34:57.766Z,102264.89
2019-02-26T16:37:27.828Z,102267.81
2019-02-26T16:40:02.739Z,102264.42
2019-02-26T16:42:32.489Z,102268.11
2019-02-26T16:45:02.170Z,102271.30
2019-02-26T16:47:33.934Z,102268.49
2019-02-26T16:50:12.915Z,102265.83
2019-02-26T16:52:37.221Z,102275.13
2019-02-26T16:55:07.747Z,102275.38
2019-02-26T16:57:37.681Z,102277.36
2019-02-26T17:00:08.994Z,102279.77
2019-02-26T17:02:39.187Z,102283.91
2019-02-26T17:05:09.623Z,102286.72
2019-02-26T17:07:40.969Z,102300.73
2019-02-26T17:10:12.086Z,102303.22
2019-02-26T17:12:42.427Z,102307.91
2019-02-26T17:15:17.393Z,102299.16
2019-02-26T17:17:47.192Z,102302.97
2019-02-26T17:20:19.643Z,102310.17
2019-02-26T17:22:48.571Z,102304.77
2019-02-26T17:25:18.617Z,102304.09
2019-02-26T17:27:48.286Z,102306.80
2019-02-26T17:30:18.266Z,102310.16
2019-02-26T17:32:49.577Z,102306.30
2019-02-26T17:35:19.813Z,102309.74
2019-02-26T17:37:49.488Z,102307.42
2019-02-26T17:40:19.448Z,102312.66
2019-02-26T17:42:51.233Z,102312.97
2019-02-26T17:45:20.914Z,102313.05
2019-02-26T17:47:50.747Z,102309.05
2019-02-26T17:50:31.940Z,102314.36
2019-02-26T17:53:01.935Z,102310.95
2019-02-26T17:55:31.647Z,102318.11
2019-02-26T17:58:01.768Z,102315.53
2019-02-26T18:00:38.081Z,102315.47
2019-02-26T18:03:11.099Z,102316.39
2019-02-26T18:05:50.889Z,102311.09
2019-02-26T18:08:14.367Z,102322.27
2019-02-26T18:10:44.277Z,102323.95
2019-02-26T18:13:14.296Z,102326.89
2019-02-26T18:15:44.167Z,102323.62
2019-02-26T18:18:13.952Z,102322.32
2019-02-26T18:20:43.898Z,102323.75
2019-02-26T18:23:13.944Z,102324.48
2019-02-26T18:25:43.680Z,102324.63
2019-02-26T18:28:15.370Z,102326.93
2019-02-26T18:30:49.216Z,102326.91
2019-02-26T18:33:20.102Z,102319.13
2019-02-26T18:35:49.804Z,102319.13
2019-02-26T18:38:19.709Z,102320.53
2019-02-26T18:40:49.771Z,102320.50
2019-02-26T18:43:19.855Z,102318.72
2019-02-26T18:45:49.861Z,102318.78
2019-02-26T18:48:19.634Z,102322.87
2019-02-26T18:50:49.259Z,102316.66
2019-02-26T18:53:19.155Z,102311.83
2019-02-26T18:55:48.910Z,102320.58
2019-02-26T18:58:19.188Z,102317.60
2019-02-26T19:00:48.844Z,102311.02
2019-02-26T19:03:19.242Z,102304.87
2019-02-26T19:05:49.161Z,102298.97
2019-02-26T19:08:19.542Z,102292.11
2019-02-26T19:10:50.887Z,102303.55
2019-02-26T19:13:21.766Z,102294.95
2019-02-26T19:15:52.006Z,102299.92
2019-02-26T19:18:21.720Z,102298.23
2019-02-26T19:20:51.959Z,102299.66
2019-02-26T19:23:22.266Z,102303.83
2019-02-26T19:25:52.186Z,102298.41
2019-02-26T19:28:25.803Z,102302.45
2019-02-26T19:30:54.140Z,102303.26
2019-02-26T19:33:24.230Z,102300.18
2019-02-26T19:35:56.611Z,102299.43
2019-02-26T19:38:28.203Z,102287.68
2019-02-26T19:40:59.547Z,102293.29
2019-02-26T19:43:29.563Z,102297.95
2019-02-26T19:45:59.331Z,102293.20
2019-02-26T19:48:30.926Z,102294.54
2019-02-26T19:51:00.953Z,102289.52
2019-02-26T19:53:34.467Z,102298.58
2019-02-26T19:56:02.169Z,102291.52
2019-02-26T19:58:33.257Z,102294.92
2019-02-26T20:01:04.933Z,102292.62
2019-02-26T20:03:39.953Z,102296.34
2019-02-26T20:06:08.370Z,102290.84
2019-02-26T20:08:38.056Z,102293.48
2019-02-26T20:11:08.315Z,102290.66
2019-02-26T20:13:42.020Z,102291.52
2019-02-26T20:16:09.435Z,102286.87
2019-02-26T20:18:40.952Z,102281.25
2019-02-26T20:21:12.189Z,102286.32
2019-02-26T20:23:42.511Z,102278.69
2019-02-26T20:26:16.193Z,102279.53
2019-02-26T20:28:48.659Z,102274.17
2019-02-26T20:31:21.480Z,102276.06
2019-02-26T20:33:50.369Z,102277.41
2019-02-26T20:36:20.422Z,102284.64
2019-02-26T20:38:51.409Z,102279.80
2019-02-26T20:41:22.210Z,102279.80
2019-02-26T20:43:52.556Z,102283.52
2019-02-26T20:46:24.937Z,102288.13
2019-02-26T20:48:54.190Z,102284.92
2019-02-26T20:51:26.922Z,102283.73
2019-02-26T20:53:55.885Z,102281.86
2019-02-26T20:56:26.067Z,102279.84
2019-02-26T20:58:56.000Z,102283.27
2019-02-26T21:01:25.679Z,102281.88
2019-02-26T21:03:55.584Z,102276.66
2019-02-26T21:06:25.341Z,102273.59
2019-02-26T21:08:54.999Z,102270.68
2019-02-26T21:11:24.759Z,102273.26
2019-02-26T21:13:54.364Z,102276.56
2019-02-26T21:16:23.958Z,102283.09
2019-02-26T21:18:53.988Z,102282.09
2019-02-26T21:21:23.683Z,102273.34
2019-02-26T21:23:53.585Z,102274.13
2019-02-26T21:26:23.698Z,102270.68
2019-02-26T21:28:53.320Z,102272.48
2019-02-26T21:31:23.004Z,102271.83
2019-02-26T21:33:52.604Z,102266.48
2019-02-26T21:36:22.688Z,102269.06
2019-02-26T21:38:52.847Z,102269.23
2019-02-26T21:41:23.544Z,102260.84
2019-02-26T21:43:54.968Z,102260.08
2019-02-26T21:46:24.717Z,102263.13
2019-02-26T21:48:54.895Z,102265.30
2019-02-26T21:51:25.153Z,102264.66
2019-02-26T21:53:55.146Z,102264.91
2019-02-26T21:56:25.089Z,102264.25
2019-02-26T21:58:56.933Z,102256.05
2019-02-26T22:01:27.451Z,102257.46
2019-02-26T22:03:58.468Z,102258.47
2019-02-26T22:06:28.757Z,102258.53
2019-02-26T22:08:58.625Z,102261.25
2019-02-26T22:11:31.048Z,102258.28
2019-02-26T22:14:02.834Z,102254.66
2019-02-26T22:16:33.912Z,102251.03
2019-02-26T22:19:04.702Z,102243.94
2019-02-26T22:21:35.985Z,102245.84
2019-02-26T22:24:07.063Z,102246.25
2019-02-26T22:26:37.817Z,102246.80
2019-02-26T22:29:07.985Z,102246.12
2019-02-26T22:31:37.937Z,102244.93
2019-02-26T22:34:08.925Z,102250.73
2019-02-26T22:36:39.668Z,102244.38
2019-02-26T22:39:12.957Z,102249.43
2019-02-26T22:41:42.589Z,102250.38
2019-02-26T22:44:12.720Z,102245.84
2019-02-26T22:46:44.260Z,102248.83
2019-02-26T22:49:14.451Z,102240.09
2019-02-26T22:51:44.627Z,102242.88
2019-02-26T22:54:14.592Z,102243.19
2019-02-26T22:56:44.263Z,102236.85
2019-02-26T22:59:14.409Z,102234.30
2019-02-26T23:01:48.213Z,102236.05
2019-02-26T23:04:19.784Z,102233.31
2019-02-26T23:06:50.125Z,102232.95
2019-02-26T23:09:24.203Z,102236.08
2019-02-26T23:11:54.316Z,102237.44
2019-02-26T23:14:24.304Z,102237.16
2019-02-26T23:16:54.792Z,102232.91
2019-02-26T23:19:24.694Z,102237.77
2019-02-26T23:21:54.726Z,102232.57
2019-02-26T23:24:27.737Z,102223.61
2019-02-26T23:26:56.529Z,102222.09
2019-02-26T23:29:27.965Z,102228.92
2019-02-26T23:31:58.611Z,102214.21
2019-02-26T23:34:30.535Z,102223.61
2019-02-26T23:37:01.491Z,102217.20
2019-02-26T23:39:31.242Z,102217.64
2019-02-26T23:42:05.863Z,102225.43
2019-02-26T23:44:33.068Z,102211.67
2019-02-26T23:47:02.736Z,102217.46
2019-02-26T23:49:33.144Z,102218.23
2019-02-26T23:52:02.996Z,102218.29
2019-02-26T23:54:32.584Z,102212.38
2019-02-26T23:57:02.701Z,102215.95
2019-02-26T23:59:34.849Z,102216.65
